Time;durP1;ratioP1;P1;durP2;ratioP2;P2;SDS_P1;SDS_P2;PMS_P1;PMS_P2;Temp;Humidity;BMP_temperature;BMP_pressure;BME280_temperature;BME280_humidity;BME280_pressure;Samples;Min_cycle;Max_cycle;Signal;HPM_P1;HPM_P2
2023/12/16 00:01:21;;;;;;;0.80;0.30;;;5.60;88.10;;;;;;4896604;29;20483;-74
2023/12/16 00:03:47;;;;;;;2.65;0.47;;;5.90;87.80;;;;;;4894999;29;20074;-74
2023/12/16 00:06:13;;;;;;;0.73;0.40;;;6.00;87.00;;;;;;4896298;29;21081;-74
2023/12/16 00:08:39;;;;;;;0.90;0.40;;;6.00;87.80;;;;;;4897967;29;20038;-75
2023/12/16 00:11:05;;;;;;;1.38;0.50;;;5.70;88.10;;;;;;4895659;29;20530;-75
2023/12/16 00:13:30;;;;;;;0.43;0.25;;;5.90;87.50;;;;;;4895977;29;20036;-74
2023/12/16 00:15:56;;;;;;;1.25;0.70;;;5.70;88.40;;;;;;4897819;29;20470;-76
2023/12/16 00:18:22;;;;;;;0.70;0.30;;;5.70;89.00;;;;;;4896210;29;20101;-75
2023/12/16 00:20:48;;;;;;;1.10;0.50;;;5.60;89.40;;;;;;4896204;29;20123;-75
2023/12/16 00:23:14;;;;;;;0.57;0.28;;;5.70;87.90;;;;;;4895139;29;20455;-76
2023/12/16 00:25:40;;;;;;;0.40;0.30;;;6.10;86.30;;;;;;4878439;29;20044;-75
2023/12/16 00:28:05;;;;;;;1.95;0.60;;;6.00;88.70;;;;;;4891308;29;20031;-75
2023/12/16 00:30:31;;;;;;;1.48;0.52;;;5.80;88.30;;;;;;4895739;29;20103;-75
2023/12/16 00:32:58;;;;;;;1.50;0.50;;;6.00;86.70;;;;;;4893716;29;20036;-74
2023/12/16 00:35:24;;;;;;;2.30;0.60;;;6.10;87.20;;;;;;4895351;29;20043;-75
2023/12/16 00:37:50;;;;;;;1.88;0.38;;;6.20;87.00;;;;;;4896108;29;20032;-75
2023/12/16 00:40:15;;;;;;;0.73;0.32;;;6.10;86.60;;;;;;4895008;29;20119;-75
2023/12/16 00:42:41;;;;;;;0.30;0.20;;;6.30;86.30;;;;;;4895685;29;20454;-75
2023/12/16 00:45:07;;;;;;;1.40;0.38;;;6.40;86.10;;;;;;4895810;29;21006;-75
2023/12/16 00:47:33;;;;;;;0.77;0.30;;;6.70;83.80;;;;;;4897559;29;20378;-75
2023/12/16 00:49:58;;;;;;;0.63;0.40;;;6.80;83.30;;;;;;4894034;29;20033;-73
2023/12/16 00:52:24;;;;;;;0.60;0.30;;;6.80;83.00;;;;;;4896569;29;20533;-75
2023/12/16 00:54:51;;;;;;;0.45;0.32;;;6.40;86.70;;;;;;4896753;29;20147;-75
2023/12/16 00:57:16;;;;;;;0.73;0.32;;;6.60;83.80;;;;;;4898011;29;20044;-74
2023/12/16 00:59:42;;;;;;;0.90;0.20;;;7.10;82.40;;;;;;4898956;29;20064;-74
2023/12/16 01:02:08;;;;;;;1.35;0.50;;;6.50;84.60;;;;;;4900970;29;20496;-75
2023/12/16 01:04:33;;;;;;;0.35;0.20;;;6.70;83.90;;;;;;4899661;29;20068;-74
2023/12/16 01:06:59;;;;;;;1.20;0.60;;;6.40;84.90;;;;;;4900186;29;20542;-74
2023/12/16 01:09:25;;;;;;;1.02;0.50;;;6.80;83.10;;;;;;4898406;29;20403;-75
2023/12/16 01:11:50;;;;;;;1.33;0.40;;;6.70;84.00;;;;;;4899339;29;20130;-74
2023/12/16 01:14:18;;;;;;;1.75;0.60;;;6.20;86.50;;;;;;4900192;29;20091;-74
2023/12/16 01:16:43;;;;;;;0.85;0.30;;;6.60;84.20;;;;;;4900355;29;20051;-75
2023/12/16 01:19:09;;;;;;;0.57;0.30;;;6.30;85.10;;;;;;4899432;29;20056;-75
2023/12/16 01:21:42;;;;;;;2.30;0.68;;;6.10;86.70;;;;;;4899593;29;20123;-75
2023/12/16 01:24:08;;;;;;;1.08;0.25;;;6.40;84.20;;;;;;4900779;29;20443;-75
2023/12/16 01:26:34;;;;;;;0.40;0.40;;;6.30;85.30;;;;;;4900099;29;20040;-73
2023/12/16 01:28:59;;;;;;;0.75;0.30;;;6.40;84.80;;;;;;4899631;29;20383;-74
2023/12/16 01:31:25;;;;;;;1.00;0.32;;;6.60;84.30;;;;;;4900461;29;20126;-74
2023/12/16 01:33:51;;;;;;;0.73;0.50;;;6.50;84.60;;;;;;4899503;29;20043;-74
2023/12/16 01:36:17;;;;;;;0.85;0.40;;;6.20;86.00;;;;;;4899082;29;20491;-74
2023/12/16 01:38:42;;;;;;;0.50;0.32;;;5.90;86.30;;;;;;4899929;29;20067;-75
2023/12/16 01:41:08;;;;;;;0.35;0.20;;;5.80;87.80;;;;;;4899385;29;20043;-75
2023/12/16 01:43:34;;;;;;;0.57;0.30;;;5.80;87.20;;;;;;4899846;29;20104;-75
2023/12/16 01:46:03;;;;;;;1.80;1.02;;;5.70;87.80;;;;;;4900764;29;20111;-74
2023/12/16 01:48:32;;;;;;;1.27;0.50;;;5.80;86.80;;;;;;4899712;29;20052;-73
2023/12/16 01:50:59;;;;;;;1.70;0.50;;;6.00;86.40;;;;;;4898814;29;20044;-73
2023/12/16 01:53:26;;;;;;;0.95;0.30;;;5.70;87.10;;;;;;4899330;29;20052;-74
2023/12/16 01:55:53;;;;;;;0.73;0.30;;;5.50;88.50;;;;;;4900023;29;20059;-76
2023/12/16 01:58:19;;;;;;;1.45;0.50;;;5.60;87.80;;;;;;4897430;29;20574;-74
2023/12/16 02:00:47;;;;;;;0.93;0.40;;;5.20;89.70;;;;;;4898121;29;20069;-74
2023/12/16 02:03:17;;;;;;;0.55;0.30;;;5.30;88.60;;;;;;4900061;29;21362;-74
2023/12/16 02:05:42;;;;;;;0.88;0.32;;;5.50;88.30;;;;;;4898431;29;20050;-75
2023/12/16 02:08:08;;;;;;;0.57;0.30;;;5.80;86.00;;;;;;4897724;29;20037;-75
2023/12/16 02:10:34;;;;;;;1.52;0.47;;;5.60;88.00;;;;;;4899456;29;20040;-76
2023/12/16 02:13:03;;;;;;;0.98;0.43;;;5.80;87.10;;;;;;4900647;29;20040;-74
2023/12/16 02:15:29;;;;;;;0.73;0.25;;;5.70;87.10;;;;;;4898993;29;20048;-74
2023/12/16 02:17:54;;;;;;;1.20;0.50;;;5.50;87.70;;;;;;4897423;29;20670;-77
2023/12/16 02:20:20;;;;;;;2.15;0.80;;;5.70;86.30;;;;;;4899569;29;20043;-75
2023/12/16 02:22:47;;;;;;;1.30;0.45;;;5.80;86.70;;;;;;4898395;29;20039;-75
2023/12/16 02:25:14;;;;;;;3.70;0.30;;;5.80;87.50;;;;;;4898724;29;20036;-75
2023/12/16 02:27:41;;;;;;;0.70;0.50;;;5.60;87.50;;;;;;4899131;29;20040;-75
2023/12/16 02:30:08;;;;;;;1.17;0.45;;;5.70;86.50;;;;;;4898157;29;20067;-75
2023/12/16 02:32:34;;;;;;;1.67;0.40;;;5.70;87.40;;;;;;4896679;29;20028;-75
2023/12/16 02:34:59;;;;;;;1.25;0.43;;;5.90;85.80;;;;;;4899063;29;20033;-74
2023/12/16 02:37:25;;;;;;;1.60;0.60;;;5.60;88.10;;;;;;4899421;29;20039;-75
2023/12/16 02:39:51;;;;;;;1.20;0.60;;;5.80;86.50;;;;;;4897199;29;20411;-75
2023/12/16 02:42:16;;;;;;;1.67;0.55;;;5.90;86.20;;;;;;4881130;29;20047;-75
2023/12/16 02:44:42;;;;;;;1.42;0.65;;;6.00;85.70;;;;;;4899108;29;20032;-75
2023/12/16 02:47:08;;;;;;;1.98;0.60;;;6.10;86.20;;;;;;4897837;29;20056;-74
2023/12/16 02:49:33;;;;;;;0.95;0.40;;;6.10;85.60;;;;;;4898928;29;20094;-75
2023/12/16 02:51:59;;;;;;;1.80;0.65;;;6.00;86.20;;;;;;4898787;29;20032;-75
2023/12/16 02:54:27;;;;;;;0.75;0.40;;;6.00;85.40;;;;;;4897289;29;20030;-75
2023/12/16 02:56:52;;;;;;;0.93;0.40;;;6.20;85.90;;;;;;4897320;29;20091;-75
2023/12/16 02:59:18;;;;;;;0.80;0.40;;;6.00;86.80;;;;;;4899817;29;20712;-75
2023/12/16 03:01:44;;;;;;;1.63;0.65;;;5.80;87.20;;;;;;4897670;29;21763;-74
2023/12/16 03:04:10;;;;;;;1.10;0.47;;;5.70;87.70;;;;;;4898581;29;20063;-75
2023/12/16 03:06:41;;;;;;;0.68;0.30;;;5.90;86.10;;;;;;4899664;29;20116;-74
2023/12/16 03:09:06;;;;;;;1.85;0.40;;;5.80;88.00;;;;;;4897581;29;20115;-75
2023/12/16 03:11:32;;;;;;;2.60;0.50;;;5.80;86.90;;;;;;4896746;29;20517;-75
2023/12/16 03:13:58;;;;;;;1.52;0.60;;;5.80;87.60;;;;;;4899454;29;20068;-75
2023/12/16 03:16:23;;;;;;;1.52;0.50;;;5.60;87.80;;;;;;4897516;29;20058;-74
2023/12/16 03:18:49;;;;;;;1.42;0.57;;;5.70;86.90;;;;;;4897475;29;20507;-76
2023/12/16 03:21:15;;;;;;;1.40;0.50;;;6.00;86.10;;;;;;4898241;29;20395;-75
2023/12/16 03:23:40;;;;;;;0.57;0.32;;;5.80;87.50;;;;;;4899083;29;20066;-74
2023/12/16 03:26:06;;;;;;;1.45;0.55;;;5.60;86.90;;;;;;4895349;29;20045;-75
2023/12/16 03:28:32;;;;;;;1.83;0.40;;;5.80;86.60;;;;;;4898342;29;20495;-74
2023/12/16 03:30:58;;;;;;;1.73;0.70;;;5.90;86.20;;;;;;4898704;29;20606;-75
2023/12/16 03:33:23;;;;;;;1.80;0.85;;;6.00;85.70;;;;;;4898165;29;20387;-76
2023/12/16 03:35:49;;;;;;;3.20;1.65;;;5.70;89.00;;;;;;4896636;29;20402;-75
2023/12/16 03:38:15;;;;;;;3.38;1.20;;;5.00;90.70;;;;;;4899176;29;20659;-75
2023/12/16 03:40:41;;;;;;;3.20;1.50;;;4.60;91.70;;;;;;4897076;29;20033;-74
2023/12/16 03:43:07;;;;;;;2.60;1.30;;;4.30;92.40;;;;;;4896806;29;20063;-75
2023/12/16 03:45:32;;;;;;;4.32;1.73;;;4.00;92.50;;;;;;4897274;29;20063;-75
2023/12/16 03:47:58;;;;;;;5.68;1.48;;;3.90;92.70;;;;;;4897732;29;20036;-75
2023/12/16 03:50:24;;;;;;;3.03;1.05;;;4.00;93.00;;;;;;4880687;29;20036;-75
2023/12/16 03:52:49;;;;;;;5.68;1.20;;;3.80;93.20;;;;;;4898873;29;20486;-76
2023/12/16 03:55:15;;;;;;;3.30;1.30;;;3.90;92.90;;;;;;4897091;29;20130;-74
2023/12/16 03:57:41;;;;;;;2.75;1.27;;;3.80;93.50;;;;;;4897543;29;20071;-75
2023/12/16 04:00:08;;;;;;;3.60;1.33;;;3.70;93.30;;;;;;4899114;29;20149;-75
2023/12/16 04:02:34;;;;;;;2.25;0.80;;;3.80;93.00;;;;;;4894673;29;20036;-76
2023/12/16 04:05:00;;;;;;;1.95;0.70;;;3.90;92.60;;;;;;4892301;29;20032;-76
2023/12/16 04:07:25;;;;;;;2.53;0.85;;;4.40;91.30;;;;;;4894496;29;20647;-76
2023/12/16 04:09:51;;;;;;;1.08;0.50;;;4.50;90.90;;;;;;4892700;29;20658;-75
2023/12/16 04:12:17;;;;;;;0.80;0.40;;;4.70;90.40;;;;;;4892841;29;20036;-75
2023/12/16 04:14:42;;;;;;;0.68;0.35;;;5.30;89.20;;;;;;4894511;29;20147;-75
2023/12/16 04:17:08;;;;;;;0.77;0.30;;;5.40;89.40;;;;;;4891025;29;20040;-76
2023/12/16 04:19:33;;;;;;;1.27;0.55;;;4.90;91.10;;;;;;4889648;29;20059;-74
2023/12/16 04:21:59;;;;;;;1.70;0.55;;;4.70;91.20;;;;;;4889783;29;20145;-76
2023/12/16 04:24:25;;;;;;;2.65;0.90;;;4.50;91.50;;;;;;4894399;29;21426;-76
2023/12/16 04:26:50;;;;;;;1.75;0.77;;;4.20;91.60;;;;;;4897084;29;20641;-75
2023/12/16 04:29:16;;;;;;;1.65;0.60;;;4.10;92.50;;;;;;4898046;29;20459;-75
2023/12/16 04:31:42;;;;;;;1.42;0.40;;;4.00;92.00;;;;;;4897829;29;20463;-75
2023/12/16 04:34:08;;;;;;;1.20;0.65;;;4.00;92.20;;;;;;4897957;29;20103;-76
2023/12/16 04:36:34;;;;;;;0.80;0.25;;;4.10;91.80;;;;;;4895986;29;20059;-75
2023/12/16 04:39:07;;;;;;;0.57;0.35;;;4.00;92.20;;;;;;4897982;29;20036;-75
2023/12/16 04:41:32;;;;;;;0.77;0.45;;;4.10;92.50;;;;;;4896076;29;20043;-75
2023/12/16 04:43:58;;;;;;;1.63;0.50;;;3.90;92.90;;;;;;4896262;29;20044;-75
2023/12/16 04:46:24;;;;;;;1.52;0.57;;;4.00;92.00;;;;;;4898114;29;20043;-75
2023/12/16 04:48:50;;;;;;;1.23;0.68;;;4.00;92.50;;;;;;4897237;29;20047;-75
2023/12/16 04:51:15;;;;;;;1.08;0.50;;;4.00;92.70;;;;;;4896402;29;20103;-75
2023/12/16 04:53:41;;;;;;;1.65;0.50;;;4.10;92.50;;;;;;4898069;29;20123;-76
2023/12/16 04:56:07;;;;;;;1.23;0.47;;;4.10;92.70;;;;;;4896594;29;20546;-75
2023/12/16 04:58:33;;;;;;;1.92;0.50;;;4.00;92.80;;;;;;4894892;29;20036;-75
2023/12/16 05:00:59;;;;;;;2.05;0.85;;;3.90;92.80;;;;;;4893420;29;20397;-74
2023/12/16 05:03:25;;;;;;;0.57;0.30;;;3.80;92.40;;;;;;4889278;29;20033;-75
2023/12/16 05:05:50;;;;;;;0.93;0.40;;;3.90;93.00;;;;;;4892808;29;20036;-76
2023/12/16 05:08:16;;;;;;;0.88;0.40;;;3.70;93.00;;;;;;4893677;29;20071;-74
2023/12/16 05:10:45;;;;;;;1.05;0.68;;;3.70;93.60;;;;;;4894574;29;20083;-74
2023/12/16 05:13:11;;;;;;;1.58;0.73;;;3.70;92.80;;;;;;4893639;29;20827;-75
2023/12/16 05:15:40;;;;;;;2.58;1.08;;;3.70;93.10;;;;;;4891701;29;20051;-76
2023/12/16 05:18:06;;;;;;;4.63;2.13;;;4.10;92.40;;;;;;4894783;29;20074;-75
2023/12/16 05:20:33;;;;;;;4.40;2.05;;;4.00;92.60;;;;;;4893011;29;20036;-74
2023/12/16 05:23:02;;;;;;;3.97;1.90;;;4.00;92.50;;;;;;4892503;29;20685;-74
2023/12/16 05:25:28;;;;;;;3.25;1.30;;;4.00;92.60;;;;;;4890829;29;20040;-73
2023/12/16 05:27:55;;;;;;;4.25;1.60;;;3.80;93.50;;;;;;4893922;29;20044;-76
2023/12/16 05:30:20;;;;;;;5.15;2.42;;;3.60;93.80;;;;;;4892277;29;20072;-74
2023/12/16 05:32:46;;;;;;;21.98;10.30;;;3.50;93.90;;;;;;4893296;29;20040;-76
2023/12/16 05:35:12;;;;;;;8.57;4.03;;;3.50;94.30;;;;;;4894302;29;20122;-75
2023/12/16 05:37:38;;;;;;;2.95;1.25;;;3.60;93.60;;;;;;4892356;29;20119;-74
2023/12/16 05:40:04;;;;;;;114.55;55.05;;;3.80;92.70;;;;;;4893384;29;20720;-74
2023/12/16 05:42:30;;;;;;;36.03;15.52;;;3.60;93.70;;;;;;4893576;29;20035;-74
2023/12/16 05:44:55;;;;;;;16.33;7.60;;;3.50;94.00;;;;;;4893049;29;20060;-75
2023/12/16 05:47:21;;;;;;;9.63;4.25;;;3.40;94.30;;;;;;4892723;29;20788;-75
2023/12/16 05:49:47;;;;;;;6.63;3.42;;;3.40;94.60;;;;;;4891924;29;20036;-75
2023/12/16 05:52:12;;;;;;;11.70;5.20;;;3.40;94.80;;;;;;4892896;29;20795;-75
2023/12/16 05:54:38;;;;;;;7.75;3.58;;;3.20;95.50;;;;;;4892836;29;20514;-76
2023/12/16 05:57:04;;;;;;;5.63;2.53;;;3.30;94.60;;;;;;4892271;29;20106;-75
2023/12/16 05:59:30;;;;;;;3.95;1.67;;;3.30;94.60;;;;;;4891223;29;20052;-75
2023/12/16 06:01:55;;;;;;;3.85;1.50;;;3.30;94.80;;;;;;4891888;29;20064;-74
2023/12/16 06:04:22;;;;;;;3.63;1.70;;;3.30;96.10;;;;;;4893653;29;20060;-75
2023/12/16 06:06:48;;;;;;;24.02;10.93;;;3.00;95.70;;;;;;4892940;29;20074;-75
2023/12/16 06:09:13;;;;;;;8.07;4.18;;;3.00;95.80;;;;;;4892138;29;20114;-74
2023/12/16 06:11:39;;;;;;;6.25;2.72;;;3.10;95.40;;;;;;4892902;29;20614;-75
2023/12/16 06:14:05;;;;;;;5.13;1.70;;;3.10;95.20;;;;;;4893022;29;20044;-75
2023/12/16 06:16:31;;;;;;;2.70;1.15;;;3.00;95.10;;;;;;4891338;29;20052;-75
2023/12/16 06:18:56;;;;;;;2.97;1.23;;;3.00;95.10;;;;;;4891522;29;20052;-76
2023/12/16 06:21:22;;;;;;;3.15;1.10;;;3.10;95.10;;;;;;4892405;29;20928;-76
2023/12/16 06:23:48;;;;;;;2.53;1.00;;;3.10;95.60;;;;;;4890389;29;20139;-75
2023/12/16 06:26:13;;;;;;;2.85;1.20;;;3.00;95.20;;;;;;4874736;29;20143;-75
2023/12/16 06:28:39;;;;;;;3.08;1.48;;;3.10;95.10;;;;;;4891885;29;20526;-76
2023/12/16 06:31:04;;;;;;;7.25;5.38;;;3.00;95.70;;;;;;4891905;29;20028;-75
2023/12/16 06:33:30;;;;;;;4.72;2.42;;;3.00;95.40;;;;;;4891663;29;20475;-75
2023/12/16 06:35:56;;;;;;;2.00;1.02;;;3.00;95.10;;;;;;4892806;29;20060;-76
2023/12/16 06:38:21;;;;;;;7.60;4.13;;;3.00;95.60;;;;;;4890762;29;20381;-76
2023/12/16 06:40:47;;;;;;;15.88;8.90;;;3.10;95.90;;;;;;4890121;29;20039;-74
2023/12/16 06:43:13;;;;;;;7.63;4.30;;;3.10;96.10;;;;;;4893070;29;20063;-74
2023/12/16 06:45:38;;;;;;;6.82;2.97;;;2.90;96.00;;;;;;4891621;29;20068;-75
2023/12/16 06:48:05;;;;;;;4.35;1.92;;;3.00;95.70;;;;;;4891110;29;20044;-74
2023/12/16 06:50:30;;;;;;;2.47;1.20;;;3.00;95.30;;;;;;4892837;29;20039;-75
2023/12/16 06:52:56;;;;;;;2.95;1.38;;;3.10;95.50;;;;;;4891257;29;20402;-75
2023/12/16 06:55:22;;;;;;;2.53;0.77;;;2.90;95.70;;;;;;4890511;29;20083;-75
2023/12/16 06:57:47;;;;;;;2.05;0.70;;;3.00;95.60;;;;;;4893036;29;20130;-76
2023/12/16 07:00:13;;;;;;;2.20;0.80;;;3.00;95.80;;;;;;4891828;29;20471;-74
2023/12/16 07:02:42;;;;;;;1.88;0.88;;;3.10;95.40;;;;;;4889424;29;20459;-76
2023/12/16 07:05:10;;;;;;;2.20;0.90;;;3.00;95.70;;;;;;4891723;29;20470;-76
2023/12/16 07:07:35;;;;;;;1.70;0.82;;;3.00;95.60;;;;;;4892014;29;20105;-75
2023/12/16 07:10:01;;;;;;;1.67;0.70;;;2.90;95.40;;;;;;4891484;29;20055;-76
2023/12/16 07:12:27;;;;;;;3.70;1.00;;;2.80;95.90;;;;;;4890651;29;20040;-74
2023/12/16 07:14:53;;;;;;;4.75;0.98;;;2.80;95.90;;;;;;4892835;29;20040;-75
2023/12/16 07:17:19;;;;;;;1.98;0.90;;;2.70;95.80;;;;;;4889155;29;20052;-75
2023/12/16 07:19:44;;;;;;;2.50;0.77;;;2.80;95.90;;;;;;4890666;29;20062;-75
2023/12/16 07:22:10;;;;;;;0.85;0.40;;;2.90;96.00;;;;;;4891714;29;20036;-74
2023/12/16 07:24:37;;;;;;;2.90;1.20;;;2.90;95.80;;;;;;4890949;29;20042;-74
2023/12/16 07:27:03;;;;;;;3.63;1.38;;;2.90;96.00;;;;;;4889508;29;20038;-75
2023/12/16 07:29:34;;;;;;;2.42;1.05;;;2.90;96.10;;;;;;4891732;29;20060;-75
2023/12/16 07:32:00;;;;;;;2.47;1.02;;;2.90;96.60;;;;;;4893691;29;20122;-74
2023/12/16 07:34:26;;;;;;;2.60;1.13;;;2.90;97.20;;;;;;4893200;29;20747;-74
2023/12/16 07:36:52;;;;;;;2.28;0.90;;;2.80;96.40;;;;;;4892817;29;20044;-74
2023/12/16 07:39:18;;;;;;;2.92;1.08;;;2.80;96.20;;;;;;4895423;29;20032;-74
2023/12/16 07:41:44;;;;;;;2.65;0.93;;;2.80;96.20;;;;;;4892078;29;20036;-75
2023/12/16 07:44:11;;;;;;;3.03;1.13;;;2.80;96.70;;;;;;4890379;29;20035;-75
2023/12/16 07:46:39;;;;;;;2.58;0.90;;;2.80;96.90;;;;;;4891325;29;20031;-75
2023/12/16 07:49:04;;;;;;;2.63;1.10;;;2.90;96.90;;;;;;4890139;29;20123;-74
2023/12/16 07:51:30;;;;;;;3.85;1.80;;;2.70;97.00;;;;;;4889477;29;20630;-74
2023/12/16 07:53:56;;;;;;;2.92;1.40;;;2.70;96.60;;;;;;4890948;29;20051;-74
2023/12/16 07:56:23;;;;;;;3.88;1.60;;;2.80;96.50;;;;;;4892355;29;20479;-74
2023/12/16 07:58:52;;;;;;;3.38;1.48;;;2.70;96.70;;;;;;4893851;29;20126;-75
2023/12/16 08:01:18;;;;;;;3.17;1.30;;;2.60;97.00;;;;;;4898769;29;20108;-75
2023/12/16 08:03:45;;;;;;;2.30;1.00;;;2.80;97.00;;;;;;4898944;29;21382;-76
2023/12/16 08:06:13;;;;;;;2.72;1.05;;;2.80;96.90;;;;;;4895908;29;20036;-75
2023/12/16 08:08:40;;;;;;;3.15;1.23;;;2.90;97.00;;;;;;4894239;29;20043;-76
2023/12/16 08:11:07;;;;;;;3.13;1.40;;;2.90;96.70;;;;;;4893978;29;20039;-74
2023/12/16 08:13:33;;;;;;;5.60;1.60;;;2.80;96.60;;;;;;4896534;29;20037;-75
2023/12/16 08:15:59;;;;;;;3.45;1.60;;;2.90;96.50;;;;;;4896480;29;20075;-74
2023/12/16 08:18:26;;;;;;;3.05;1.33;;;2.70;97.00;;;;;;4901901;29;20056;-73
2023/12/16 08:20:52;;;;;;;3.83;1.65;;;2.60;97.10;;;;;;4897194;29;20127;-74
2023/12/16 08:23:18;;;;;;;3.63;1.20;;;2.70;97.10;;;;;;4897507;29;20044;-74
2023/12/16 08:25:44;;;;;;;2.95;1.23;;;2.70;97.60;;;;;;4894073;29;20119;-72
2023/12/16 08:28:10;;;;;;;3.65;1.30;;;2.60;97.60;;;;;;4898340;29;20064;-73
2023/12/16 08:30:35;;;;;;;2.17;1.08;;;2.80;96.90;;;;;;4897802;29;20553;-74
2023/12/16 08:33:01;;;;;;;5.18;1.40;;;3.00;96.70;;;;;;4898591;29;20040;-75
2023/12/16 08:35:30;;;;;;;2.35;0.95;;;2.90;97.20;;;;;;4898128;29;21190;-72
2023/12/16 08:37:56;;;;;;;4.47;1.38;;;3.00;97.00;;;;;;4899547;29;20024;-73
2023/12/16 08:40:25;;;;;;;4.32;1.45;;;2.90;96.90;;;;;;4881155;29;20701;-75
2023/12/16 08:42:51;;;;;;;2.53;1.40;;;2.90;96.90;;;;;;4898521;29;20127;-75
2023/12/16 08:45:16;;;;;;;3.28;1.30;;;3.10;96.40;;;;;;4897311;29;20793;-72
2023/12/16 08:47:42;;;;;;;3.80;1.30;;;3.10;96.70;;;;;;4895027;29;20521;-76
2023/12/16 08:50:08;;;;;;;3.65;1.45;;;3.20;96.60;;;;;;4895475;29;20043;-74
2023/12/16 08:52:35;;;;;;;2.95;1.50;;;3.00;97.10;;;;;;4880782;29;20372;-74
2023/12/16 08:55:02;;;;;;;2.22;1.02;;;3.10;96.90;;;;;;4897445;29;20036;-75
2023/12/16 08:57:28;;;;;;;6.45;1.92;;;3.30;96.10;;;;;;4895874;29;20044;-72
2023/12/16 08:59:54;;;;;;;3.58;1.50;;;3.60;95.50;;;;;;4896004;29;20063;-73
2023/12/16 09:02:20;;;;;;;4.65;1.30;;;3.80;97.00;;;;;;4898212;29;20067;-72
2023/12/16 09:04:46;;;;;;;3.33;1.33;;;3.70;96.00;;;;;;4897281;29;20032;-72
2023/12/16 09:07:12;;;;;;;3.40;1.35;;;3.70;95.60;;;;;;4897642;29;20102;-72
2023/12/16 09:09:38;;;;;;;2.55;0.90;;;3.60;96.10;;;;;;4894057;29;20036;-73
2023/12/16 09:12:05;;;;;;;2.85;1.10;;;3.50;96.70;;;;;;4895933;29;20366;-72
2023/12/16 09:14:32;;;;;;;3.22;1.10;;;3.80;99.90;;;;;;4894703;29;20040;-74
2023/12/16 09:16:57;;;;;;;3.45;1.67;;;3.80;97.50;;;;;;4887530;29;20040;-74
2023/12/16 09:19:23;;;;;;;5.53;1.40;;;3.50;96.40;;;;;;4894586;29;20547;-73
2023/12/16 09:21:49;;;;;;;2.83;1.13;;;3.40;96.30;;;;;;4891886;29;20075;-72
2023/12/16 09:24:15;;;;;;;2.80;1.25;;;3.40;96.50;;;;;;4897824;29;20946;-71
2023/12/16 09:26:41;;;;;;;2.72;1.13;;;3.50;96.20;;;;;;4898196;29;20036;-73
2023/12/16 09:29:06;;;;;;;3.15;1.20;;;3.40;96.80;;;;;;4897282;29;20043;-71
2023/12/16 09:31:33;;;;;;;1.77;0.85;;;3.20;97.00;;;;;;4897383;29;20055;-72
2023/12/16 09:33:59;;;;;;;2.90;1.05;;;3.30;96.50;;;;;;4899508;29;20114;-74
2023/12/16 09:36:26;;;;;;;4.13;0.77;;;3.60;95.70;;;;;;4896901;29;20052;-71
2023/12/16 09:38:54;;;;;;;2.53;1.00;;;3.90;94.80;;;;;;4898266;29;20123;-72
2023/12/16 09:41:23;;;;;;;2.38;0.82;;;3.90;95.00;;;;;;4897641;29;20039;-73
2023/12/16 09:43:53;;;;;;;6.43;1.13;;;3.70;95.50;;;;;;4895540;29;20035;-72
2023/12/16 09:46:24;;;;;;;2.45;0.93;;;3.60;95.50;;;;;;4895537;29;20040;-72
2023/12/16 09:48:54;;;;;;;2.67;1.20;;;3.70;95.30;;;;;;4897945;29;20075;-73
2023/12/16 09:51:21;;;;;;;2.90;1.40;;;3.80;95.10;;;;;;4898097;29;20151;-72
2023/12/16 09:53:51;;;;;;;6.80;3.70;;;3.70;95.60;;;;;;4899057;29;20512;-72
2023/12/16 09:56:17;;;;;;;5.90;2.75;;;3.70;96.10;;;;;;4898394;29;20081;-72
2023/12/16 09:58:45;;;;;;;3.97;1.83;;;3.70;96.90;;;;;;4899101;29;20122;-72
2023/12/16 10:01:11;;;;;;;4.38;1.83;;;3.60;96.10;;;;;;4900227;29;20067;-72
2023/12/16 10:03:38;;;;;;;4.07;1.60;;;3.50;96.50;;;;;;4898820;29;20470;-72
2023/12/16 10:06:06;;;;;;;3.72;1.73;;;3.50;97.60;;;;;;4897142;29;20040;-72
2023/12/16 10:08:33;;;;;;;2.55;1.15;;;3.50;97.30;;;;;;4897014;29;20039;-72
2023/12/16 10:10:59;;;;;;;2.38;0.90;;;3.60;96.90;;;;;;4896058;29;20542;-73
2023/12/16 10:13:28;;;;;;;1.90;0.80;;;3.70;95.40;;;;;;4895875;29;20032;-73
2023/12/16 10:15:53;;;;;;;1.73;0.77;;;3.70;95.20;;;;;;4896069;29;20043;-73
2023/12/16 10:18:19;;;;;;;3.08;0.90;;;3.80;95.50;;;;;;4897247;29;20410;-73
2023/12/16 10:20:45;;;;;;;1.33;0.68;;;3.80;95.50;;;;;;4897696;29;20118;-73
2023/12/16 10:23:12;;;;;;;2.17;0.77;;;3.80;96.00;;;;;;4897956;29;20091;-73
2023/12/16 10:25:42;;;;;;;2.75;0.90;;;3.90;95.00;;;;;;4896726;29;20813;-74
2023/12/16 10:28:10;;;;;;;3.30;1.38;;;3.90;95.70;;;;;;4896244;29;20096;-73
2023/12/16 10:30:36;;;;;;;5.78;1.05;;;3.90;96.00;;;;;;4896690;29;20032;-75
2023/12/16 10:33:04;;;;;;;2.13;1.00;;;3.90;94.90;;;;;;4895484;29;20383;-72
2023/12/16 10:35:30;;;;;;;2.08;0.93;;;3.90;94.60;;;;;;4893115;29;20050;-73
2023/12/16 10:37:56;;;;;;;2.05;0.93;;;4.00;94.50;;;;;;4893776;29;20032;-71
2023/12/16 10:40:23;;;;;;;2.90;1.10;;;4.10;94.30;;;;;;4892037;29;20561;-74
2023/12/16 10:42:49;;;;;;;2.95;1.00;;;4.10;94.00;;;;;;4893680;29;20040;-72
2023/12/16 10:45:15;;;;;;;2.20;1.02;;;4.20;94.20;;;;;;4893880;29;20042;-73
2023/12/16 10:47:41;;;;;;;1.45;0.70;;;4.30;93.90;;;;;;4892470;29;20652;-74
2023/12/16 10:50:08;;;;;;;2.92;0.80;;;4.40;94.90;;;;;;4892081;29;20074;-72
2023/12/16 10:52:40;;;;;;;2.85;1.05;;;4.40;95.40;;;;;;4894087;29;20028;-75
2023/12/16 10:55:09;;;;;;;2.58;0.95;;;4.50;94.80;;;;;;4892854;29;20044;-73
2023/12/16 10:57:43;;;;;;;2.83;1.42;;;4.70;94.40;;;;;;4891196;29;20095;-75
2023/12/16 11:00:11;;;;;;;4.22;1.90;;;4.80;94.20;;;;;;4892509;29;20032;-74
2023/12/16 11:02:58;;;;;;;2.72;1.38;;;5.00;94.30;;;;;;4893063;29;20032;-75
2023/12/16 11:05:39;;;;;;;6.03;1.98;;;5.10;94.20;;;;;;4892908;29;20050;-74
2023/12/16 11:08:05;;;;;;;24.50;11.25;;;5.30;94.90;;;;;;4894684;29;20043;-75
2023/12/16 11:10:32;;;;;;;47.72;23.75;;;5.40;95.20;;;;;;4893277;29;20043;-74
2023/12/16 11:13:00;;;;;;;21.33;11.75;;;5.40;96.40;;;;;;4891753;29;20350;-75
2023/12/16 11:15:26;;;;;;;13.45;7.35;;;5.60;96.20;;;;;;4891768;29;21368;-75
2023/12/16 11:18:09;;;;;;;10.73;5.55;;;5.50;95.50;;;;;;4891429;29;20043;-74
2023/12/16 11:20:42;;;;;;;11.82;6.25;;;5.70;95.30;;;;;;4892000;29;20058;-74
2023/12/16 11:23:10;;;;;;;8.98;5.53;;;6.00;96.20;;;;;;4892837;29;20127;-75
2023/12/16 11:25:36;;;;;;;13.05;6.45;;;6.00;93.90;;;;;;4893106;29;20040;-75
2023/12/16 11:28:03;;;;;;;16.17;7.57;;;5.90;94.10;;;;;;4893615;29;20032;-75
2023/12/16 11:30:32;;;;;;;9.65;5.28;;;5.70;94.20;;;;;;4891822;29;20051;-75
2023/12/16 11:32:59;;;;;;;7.53;3.55;;;5.70;94.40;;;;;;4891627;29;21393;-75
2023/12/16 11:35:37;;;;;;;4.47;2.45;;;5.60;94.30;;;;;;4892710;29;20040;-75
2023/12/16 11:38:04;;;;;;;3.17;1.60;;;5.50;93.30;;;;;;4893404;29;20059;-74
2023/12/16 11:40:52;;;;;;;5.03;1.88;;;5.60;92.70;;;;;;4874107;29;20387;-75
2023/12/16 11:43:18;;;;;;;3.47;1.60;;;5.70;92.70;;;;;;4891707;29;20036;-74
2023/12/16 11:45:46;;;;;;;1.75;0.85;;;5.80;92.50;;;;;;4892178;29;20505;-74
2023/12/16 11:48:14;;;;;;;1.75;0.75;;;6.00;92.60;;;;;;4892417;29;20150;-74
2023/12/16 11:50:42;;;;;;;2.13;0.63;;;6.00;92.60;;;;;;4893052;29;20076;-76
2023/12/16 11:53:09;;;;;;;3.03;0.68;;;6.10;92.40;;;;;;4890955;29;20494;-75
2023/12/16 11:55:36;;;;;;;2.38;0.82;;;6.10;92.40;;;;;;4890747;29;20068;-75
2023/12/16 11:58:02;;;;;;;1.27;0.63;;;6.20;91.40;;;;;;4890931;29;20119;-75
2023/12/16 12:00:29;;;;;;;1.92;0.85;;;6.30;90.80;;;;;;4891504;29;20040;-75
2023/12/16 12:02:55;;;;;;;1.02;0.50;;;6.30;91.30;;;;;;4893234;29;20040;-74
2023/12/16 12:05:20;;;;;;;1.27;0.47;;;6.30;91.50;;;;;;4894375;29;20047;-74
2023/12/16 12:07:46;;;;;;;2.60;1.13;;;6.30;92.20;;;;;;4893018;29;20502;-74
2023/12/16 12:10:12;;;;;;;3.28;1.23;;;6.10;94.60;;;;;;4894037;29;20036;-74
2023/12/16 12:12:39;;;;;;;3.33;1.73;;;5.90;95.70;;;;;;4894866;29;20032;-74
2023/12/16 12:15:06;;;;;;;4.13;2.28;;;5.80;95.60;;;;;;4893326;29;20378;-75
2023/12/16 12:17:32;;;;;;;4.13;1.70;;;5.80;95.80;;;;;;4892805;29;20052;-74
2023/12/16 12:19:58;;;;;;;5.03;1.70;;;5.80;95.50;;;;;;4895370;29;20111;-74
2023/12/16 12:22:24;;;;;;;5.63;2.22;;;5.80;95.20;;;;;;4891764;29;20040;-75
2023/12/16 12:24:50;;;;;;;7.10;2.30;;;5.80;95.10;;;;;;4891965;29;20573;-75
2023/12/16 12:27:17;;;;;;;3.10;1.27;;;5.90;94.80;;;;;;4894683;29;20123;-74
2023/12/16 12:30:04;;;;;;;3.75;1.20;;;6.00;93.70;;;;;;4892530;29;20032;-75
2023/12/16 12:32:31;;;;;;;3.50;1.27;;;6.10;93.30;;;;;;4893687;29;20395;-74
2023/12/16 12:35:11;;;;;;;1.95;0.77;;;6.20;93.00;;;;;;4892755;29;20040;-74
2023/12/16 12:37:44;;;;;;;4.53;2.25;;;6.20;93.80;;;;;;4893343;29;20116;-75
2023/12/16 12:40:13;;;;;;;5.05;2.55;;;6.30;94.80;;;;;;4891797;29;20040;-74
2023/12/16 12:42:56;;;;;;;5.20;1.98;;;6.40;94.50;;;;;;4893554;29;20043;-74
2023/12/16 12:45:37;;;;;;;2.85;1.20;;;6.40;93.10;;;;;;4894758;29;20121;-74
2023/12/16 12:48:13;;;;;;;3.50;1.10;;;6.40;93.00;;;;;;4897467;29;20043;-74
2023/12/16 12:50:40;;;;;;;6.13;2.58;;;6.40;92.80;;;;;;4894990;29;20036;-74
2023/12/16 12:53:19;;;;;;;6.22;2.75;;;6.40;93.00;;;;;;4895449;29;20040;-75